Time;durP1;ratioP1;P1;durP2;ratioP2;P2;SDS_P1;SDS_P2;PMS_P1;PMS_P2;Temp;Humidity;BMP_temperature;BMP_pressure;BME280_temperature;BME280_humidity;BME280_pressure;Samples;Min_cycle;Max_cycle;Signal;HPM_P1;HPM_P2
2024/03/24 00:02:07;;;;;;;1000.67;908.70;;;3.90;99.90;;;;;;5073222;28;20451;-66
2024/03/24 00:04:33;;;;;;;1004.00;911.40;;;3.90;99.90;;;;;;5073120;28;20557;-66
2024/03/24 00:06:59;;;;;;;987.03;894.13;;;4.00;99.90;;;;;;5073457;28;20469;-66
2024/03/24 00:09:26;;;;;;;965.40;874.00;;;4.00;99.90;;;;;;5075119;28;20541;-66
2024/03/24 00:11:52;;;;;;;959.70;867.00;;;4.00;99.90;;;;;;5079072;28;20451;-66
2024/03/24 00:14:19;;;;;;;962.67;869.63;;;3.90;99.90;;;;;;5073912;28;20492;-66
2024/03/24 00:16:44;;;;;;;963.40;870.60;;;3.90;99.90;;;;;;5084800;28;20290;-66
2024/03/24 00:19:13;;;;;;;950.47;857.07;;;3.90;99.90;;;;;;5076148;28;20553;-66
2024/03/24 00:21:39;;;;;;;959.73;866.63;;;3.90;99.90;;;;;;5072756;28;20303;-66
2024/03/24 00:24:06;;;;;;;989.47;895.90;;;4.00;99.90;;;;;;5072585;28;20992;-66
2024/03/24 00:26:32;;;;;;;974.30;881.10;;;4.10;99.90;;;;;;5072649;28;20199;-66
2024/03/24 00:28:59;;;;;;;964.83;872.37;;;4.00;99.90;;;;;;5071993;28;20458;-65
2024/03/24 00:31:24;;;;;;;945.10;853.13;;;4.00;99.90;;;;;;5080726;28;20453;-66
2024/03/24 00:33:51;;;;;;;956.43;865.13;;;4.10;99.90;;;;;;5072439;28;20577;-66
2024/03/24 00:36:19;;;;;;;956.50;865.33;;;4.10;99.90;;;;;;5072535;28;20206;-66
2024/03/24 00:38:45;;;;;;;960.37;869.37;;;4.10;99.90;;;;;;5076833;28;20906;-66
2024/03/24 00:41:11;;;;;;;978.03;888.40;;;4.10;99.90;;;;;;5084364;28;20456;-66
2024/03/24 00:43:38;;;;;;;979.50;890.70;;;4.20;99.90;;;;;;5072076;28;21091;-66
2024/03/24 00:46:04;;;;;;;990.10;900.10;;;4.20;99.90;;;;;;5072421;28;20204;-66
2024/03/24 00:48:31;;;;;;;989.03;901.00;;;4.20;99.90;;;;;;5072257;28;20461;-66
2024/03/24 00:50:57;;;;;;;980.87;893.87;;;4.30;99.90;;;;;;5072310;28;20206;-65
2024/03/24 00:53:25;;;;;;;998.43;910.83;;;4.20;99.90;;;;;;5080489;28;20992;-66
2024/03/24 00:55:51;;;;;;;997.07;911.17;;;4.20;99.90;;;;;;5072135;28;20752;-65
2024/03/24 00:58:18;;;;;;;998.80;913.70;;;4.20;99.90;;;;;;5079904;28;20539;-64
2024/03/24 01:00:44;;;;;;;989.67;903.37;;;4.20;99.90;;;;;;5076902;28;20203;-66
2024/03/24 01:03:11;;;;;;;979.37;895.10;;;4.20;99.90;;;;;;5075664;28;20500;-66
2024/03/24 01:05:37;;;;;;;987.47;902.70;;;4.10;99.90;;;;;;5072196;28;20254;-66
2024/03/24 01:08:05;;;;;;;989.53;903.50;;;4.00;99.90;;;;;;5080102;28;20458;-66
2024/03/24 01:10:36;;;;;;;976.47;892.27;;;4.00;99.90;;;;;;5071933;28;20486;-66
2024/03/24 01:13:03;;;;;;;973.47;888.37;;;4.20;99.90;;;;;;5071729;28;20479;-65
2024/03/24 01:15:30;;;;;;;975.77;891.67;;;4.10;99.90;;;;;;5080337;28;20450;-66
2024/03/24 01:17:57;;;;;;;965.13;882.63;;;4.20;99.90;;;;;;5071797;28;20493;-66
2024/03/24 01:20:23;;;;;;;962.67;879.20;;;4.10;99.90;;;;;;5072012;28;20456;-66
2024/03/24 01:22:50;;;;;;;969.53;886.50;;;4.10;99.90;;;;;;5080195;28;20572;-66
2024/03/24 01:25:16;;;;;;;990.10;906.90;;;4.20;99.90;;;;;;5071594;28;20450;-66
2024/03/24 01:27:44;;;;;;;968.53;887.40;;;4.20;99.90;;;;;;5071988;28;20984;-66
2024/03/24 01:30:11;;;;;;;964.83;884.83;;;4.20;99.90;;;;;;5071820;28;20462;-65
2024/03/24 01:32:38;;;;;;;971.80;890.80;;;4.20;99.90;;;;;;5083614;28;20477;-66
2024/03/24 01:35:05;;;;;;;972.30;891.50;;;4.30;99.90;;;;;;5076211;28;20482;-66
2024/03/24 01:37:32;;;;;;;966.10;888.03;;;4.40;99.90;;;;;;5079660;28;20462;-66
2024/03/24 01:39:58;;;;;;;959.07;881.23;;;4.60;99.90;;;;;;5071478;28;20972;-66
2024/03/24 01:42:25;;;;;;;963.17;887.20;;;4.70;99.90;;;;;;5080099;28;20520;-66
2024/03/24 01:44:52;;;;;;;964.40;890.67;;;4.70;99.90;;;;;;5071802;28;20453;-66
2024/03/24 01:47:19;;;;;;;966.30;893.83;;;4.60;99.90;;;;;;5071389;28;20836;-66
2024/03/24 01:49:45;;;;;;;964.70;894.30;;;4.70;99.90;;;;;;5071684;28;20545;-66
2024/03/24 01:52:14;;;;;;;960.50;891.30;;;4.70;99.90;;;;;;5079912;28;20864;-66
2024/03/24 01:54:40;;;;;;;961.33;892.90;;;4.80;99.90;;;;;;5071345;28;20490;-66
2024/03/24 01:57:07;;;;;;;950.70;884.10;;;4.80;99.90;;;;;;5071474;28;20848;-66
2024/03/24 01:59:33;;;;;;;953.63;888.97;;;4.90;99.90;;;;;;5074999;28;20449;-66
2024/03/24 02:02:03;;;;;;;950.07;887.73;;;5.00;99.90;;;;;;5083533;28;20833;-66
2024/03/24 02:04:28;;;;;;;944.80;885.53;;;5.00;99.90;;;;;;5072361;28;20469;-65
2024/03/24 02:06:56;;;;;;;936.20;880.70;;;5.10;99.90;;;;;;5072269;28;20457;-65
2024/03/24 02:09:21;;;;;;;931.87;878.03;;;5.10;99.90;;;;;;5075032;28;20226;-66
2024/03/24 02:11:48;;;;;;;910.33;859.80;;;5.10;99.90;;;;;;5083819;28;20503;-66
2024/03/24 02:14:14;;;;;;;900.73;852.43;;;5.10;99.90;;;;;;5075119;28;20493;-66
2024/03/24 02:16:41;;;;;;;879.30;833.63;;;5.20;99.90;;;;;;5075318;28;20458;-66
2024/03/24 02:19:08;;;;;;;871.03;825.67;;;5.20;99.90;;;;;;5074858;28;20660;-66
2024/03/24 02:21:35;;;;;;;834.33;794.83;;;5.20;99.90;;;;;;5075090;28;20523;-66
2024/03/24 02:24:02;;;;;;;833.27;793.73;;;5.30;99.90;;;;;;5083163;28;20549;-66
2024/03/24 02:26:29;;;;;;;766.27;731.67;;;5.30;99.90;;;;;;5083429;28;20468;-66
2024/03/24 02:28:55;;;;;;;722.57;692.17;;;5.30;99.90;;;;;;5074501;28;20453;-66
2024/03/24 02:31:22;;;;;;;707.70;678.13;;;5.30;99.90;;;;;;5083148;28;20461;-66
2024/03/24 02:33:47;;;;;;;694.57;665.17;;;5.30;99.90;;;;;;5079837;28;20600;-66
2024/03/24 02:36:14;;;;;;;649.73;623.90;;;5.30;99.90;;;;;;5077793;28;20557;-66
2024/03/24 02:38:40;;;;;;;666.97;639.77;;;5.40;99.90;;;;;;5078764;28;20205;-66
2024/03/24 02:41:08;;;;;;;688.93;660.93;;;5.50;99.90;;;;;;5081172;28;20537;-65
2024/03/24 02:43:36;;;;;;;683.23;655.47;;;5.40;99.90;;;;;;5077282;28;20216;-65
2024/03/24 02:46:03;;;;;;;726.70;696.77;;;5.30;99.90;;;;;;5084469;28;20543;-66
2024/03/24 02:48:29;;;;;;;696.40;668.27;;;5.20;99.90;;;;;;5077256;28;20454;-66
2024/03/24 02:50:55;;;;;;;702.60;674.63;;;5.20;99.90;;;;;;5074309;28;20461;-66
2024/03/24 02:53:21;;;;;;;766.40;734.20;;;5.20;99.90;;;;;;5074118;28;20266;-66
2024/03/24 02:55:49;;;;;;;730.33;701.37;;;5.20;99.90;;;;;;5082753;28;20466;-67
2024/03/24 02:58:16;;;;;;;753.47;722.40;;;5.20;99.90;;;;;;5073940;28;20207;-67
2024/03/24 03:00:43;;;;;;;797.57;763.27;;;5.10;99.90;;;;;;5074577;28;20462;-67
2024/03/24 03:03:09;;;;;;;808.20;773.13;;;5.10;99.90;;;;;;5074194;28;20481;-67
2024/03/24 03:05:36;;;;;;;818.13;782.33;;;5.10;99.90;;;;;;5074602;28;20454;-67
2024/03/24 03:08:03;;;;;;;869.53;825.97;;;5.00;99.90;;;;;;5074146;28;20456;-66
2024/03/24 03:10:30;;;;;;;855.77;815.53;;;5.00;99.90;;;;;;5082569;28;20502;-66
2024/03/24 03:12:58;;;;;;;894.13;845.97;;;4.80;99.90;;;;;;5074168;28;20478;-65
2024/03/24 03:15:25;;;;;;;920.93;866.03;;;4.80;99.90;;;;;;5082369;28;20989;-66
2024/03/24 03:17:52;;;;;;;921.83;868.17;;;4.70;99.90;;;;;;5073385;28;21003;-65
2024/03/24 03:20:18;;;;;;;932.73;877.07;;;4.60;99.90;;;;;;5074194;28;20828;-66
2024/03/24 03:22:45;;;;;;;926.63;871.47;;;4.60;99.90;;;;;;5082304;28;20478;-66
2024/03/24 03:25:11;;;;;;;899.47;850.30;;;4.60;99.90;;;;;;5073989;28;20192;-66
2024/03/24 03:27:38;;;;;;;929.57;873.67;;;4.50;99.90;;;;;;5077146;28;20457;-66
2024/03/24 03:30:05;;;;;;;918.73;864.73;;;4.40;99.90;;;;;;5077901;28;20458;-67
2024/03/24 03:32:33;;;;;;;959.07;898.77;;;4.40;99.90;;;;;;5081834;28;20545;-67
2024/03/24 03:34:59;;;;;;;938.23;879.83;;;4.30;99.90;;;;;;5080687;28;20856;-66
2024/03/24 03:37:26;;;;;;;966.90;903.70;;;4.20;99.90;;;;;;5074788;28;20462;-65
2024/03/24 03:39:52;;;;;;;990.10;925.63;;;4.20;99.90;;;;;;5073602;28;20678;-66
2024/03/24 03:42:19;;;;;;;1013.43;945.57;;;4.10;99.90;;;;;;5073518;28;20462;-66
2024/03/24 03:44:46;;;;;;;1058.47;985.37;;;4.10;99.90;;;;;;5075021;28;20208;-67
2024/03/24 03:47:14;;;;;;;1050.70;976.40;;;4.10;99.90;;;;;;5082603;28;20458;-67
2024/03/24 03:49:42;;;;;;;1085.50;999.90;;;4.20;99.90;;;;;;5081912;28;21019;-66
2024/03/24 03:52:09;;;;;;;1133.20;999.90;;;4.20;99.90;;;;;;5082221;28;20498;-67
2024/03/24 03:54:37;;;;;;;1101.23;999.90;;;4.30;99.90;;;;;;5077207;28;20509;-67
2024/03/24 03:57:04;;;;;;;1086.30;999.90;;;4.30;99.90;;;;;;5078277;28;20454;-66
2024/03/24 03:59:30;;;;;;;1067.03;988.37;;;4.30;99.90;;;;;;5073682;28;20454;-66
2024/03/24 04:01:56;;;;;;;1121.13;999.90;;;4.30;99.90;;;;;;5073837;28;20465;-67
2024/03/24 04:04:23;;;;;;;1124.90;999.90;;;4.40;99.90;;;;;;5074989;28;20224;-66
2024/03/24 04:06:51;;;;;;;1123.33;999.90;;;4.30;99.90;;;;;;5079729;28;20454;-66
2024/03/24 04:09:18;;;;;;;1108.50;999.90;;;4.40;99.90;;;;;;5072645;28;20454;-67
2024/03/24 04:11:45;;;;;;;1129.33;999.90;;;4.40;99.90;;;;;;5081214;28;20458;-66
2024/03/24 04:14:11;;;;;;;1149.17;999.90;;;4.40;99.90;;;;;;5072370;28;20482;-65
2024/03/24 04:16:40;;;;;;;1148.53;999.90;;;4.40;99.90;;;;;;5081654;28;20458;-65
2024/03/24 04:19:07;;;;;;;1101.30;999.90;;;4.40;99.90;;;;;;5081130;28;20196;-66
2024/03/24 04:21:35;;;;;;;1097.40;999.90;;;4.40;99.90;;;;;;5084446;28;20511;-66
2024/03/24 04:24:02;;;;;;;1104.53;999.90;;;4.50;99.90;;;;;;5077504;28;20478;-66
2024/03/24 04:26:29;;;;;;;1104.77;999.90;;;4.50;99.90;;;;;;5075039;28;20465;-66
2024/03/24 04:28:55;;;;;;;1104.03;999.90;;;4.50;99.90;;;;;;5078131;28;20457;-66
2024/03/24 04:31:21;;;;;;;1100.00;999.90;;;4.50;99.90;;;;;;5080662;28;20964;-66
2024/03/24 04:33:47;;;;;;;1033.53;956.17;;;4.60;99.90;;;;;;5077575;28;20481;-66
2024/03/24 04:36:14;;;;;;;1032.63;955.03;;;4.60;99.90;;;;;;5084172;28;20617;-67
2024/03/24 04:38:40;;;;;;;1043.67;965.77;;;4.70;99.90;;;;;;5071839;28;20217;-65
2024/03/24 04:41:09;;;;;;;1001.77;932.90;;;4.70;99.90;;;;;;5080732;28;20450;-67
2024/03/24 04:43:36;;;;;;;995.33;929.63;;;4.70;99.90;;;;;;5072167;28;20478;-67
2024/03/24 04:46:03;;;;;;;983.17;914.57;;;4.50;99.90;;;;;;5080714;28;20816;-67
2024/03/24 04:48:30;;;;;;;931.97;868.37;;;4.40;99.90;;;;;;5071981;28;20450;-67
2024/03/24 04:50:56;;;;;;;950.83;882.37;;;4.40;99.90;;;;;;5072110;28;20973;-67
2024/03/24 04:53:24;;;;;;;959.80;889.83;;;4.40;99.90;;;;;;5073611;28;20474;-67
2024/03/24 04:55:49;;;;;;;991.60;916.80;;;4.40;99.90;;;;;;5083836;28;20571;-66
2024/03/24 04:58:18;;;;;;;1023.73;945.43;;;4.50;99.90;;;;;;5074763;28;20890;-67
2024/03/24 05:00:44;;;;;;;1033.60;954.33;;;4.50;99.90;;;;;;5072271;28;20558;-67
2024/03/24 05:03:11;;;;;;;1005.60;928.90;;;4.50;99.90;;;;;;5071988;28;20492;-66
2024/03/24 05:05:38;;;;;;;1044.80;963.60;;;4.60;99.90;;;;;;5072258;28;20447;-67
2024/03/24 05:08:05;;;;;;;1029.17;950.47;;;4.60;99.90;;;;;;5071648;28;20465;-66
2024/03/24 05:10:32;;;;;;;1018.97;939.17;;;4.60;99.90;;;;;;5072093;28;20462;-67
2024/03/24 05:12:59;;;;;;;1001.23;925.33;;;4.60;99.90;;;;;;5072099;28;20505;-67
2024/03/24 05:15:26;;;;;;;998.93;923.50;;;4.60;99.90;;;;;;5071837;28;20482;-67
2024/03/24 05:17:53;;;;;;;1013.13;936.57;;;4.60;99.90;;;;;;5071583;28;20462;-66
2024/03/24 05:20:19;;;;;;;1013.90;939.87;;;4.70;99.90;;;;;;5080218;28;20843;-67
2024/03/24 05:22:46;;;;;;;1007.63;932.23;;;4.70;99.90;;;;;;5071477;28;20474;-65
2024/03/24 05:25:11;;;;;;;1014.03;937.57;;;4.70;99.90;;;;;;5072059;28;20206;-67
2024/03/24 05:27:38;;;;;;;1012.63;936.47;;;4.70;99.90;;;;;;5071624;28;20844;-67
2024/03/24 05:30:05;;;;;;;1025.47;947.67;;;4.80;99.90;;;;;;5071844;28;20212;-67
2024/03/24 05:32:35;;;;;;;1045.10;965.90;;;4.80;99.90;;;;;;5080008;28;20489;-67
2024/03/24 05:35:00;;;;;;;1050.37;970.27;;;4.80;99.90;;;;;;5071796;28;20615;-66
2024/03/24 05:37:28;;;;;;;1054.20;976.30;;;4.80;99.90;;;;;;5081831;28;20462;-66
2024/03/24 05:39:54;;;;;;;1031.57;954.33;;;4.90;99.90;;;;;;5077694;28;20200;-67
2024/03/24 05:42:20;;;;;;;1008.87;933.40;;;4.90;99.90;;;;;;5081703;28;20457;-67
2024/03/24 05:44:46;;;;;;;987.77;915.03;;;5.00;99.90;;;;;;5081074;28;20266;-67
2024/03/24 05:47:13;;;;;;;1005.50;930.43;;;5.00;99.90;;;;;;5078388;28;20462;-67
2024/03/24 05:49:40;;;;;;;1009.27;934.67;;;5.00;99.90;;;;;;5075291;28;20203;-67
2024/03/24 05:52:07;;;;;;;955.13;886.00;;;5.10;99.90;;;;;;5083968;28;20466;-67
2024/03/24 05:54:34;;;;;;;955.77;887.57;;;5.20;99.90;;;;;;5083733;28;21039;-67
2024/03/24 05:57:00;;;;;;;941.50;874.33;;;5.30;99.90;;;;;;5075894;28;20523;-66
2024/03/24 05:59:26;;;;;;;936.70;867.47;;;5.30;99.90;;;;;;5075567;28;20496;-67
2024/03/24 06:01:53;;;;;;;919.20;853.80;;;5.30;99.90;;;;;;5075767;28;20458;-67
2024/03/24 06:04:19;;;;;;;918.20;854.63;;;5.30;99.90;;;;;;5083957;28;20220;-67
2024/03/24 06:06:47;;;;;;;914.57;852.20;;;5.30;99.90;;;;;;5075424;28;20884;-67
2024/03/24 06:09:13;;;;;;;911.90;851.53;;;5.30;99.90;;;;;;5084060;28;20200;-67
2024/03/24 06:11:40;;;;;;;906.17;846.23;;;5.40;99.90;;;;;;5088138;28;20457;-67
2024/03/24 06:14:06;;;;;;;903.17;844.60;;;5.40;99.90;;;;;;5085097;28;20496;-67
2024/03/24 06:16:33;;;;;;;897.43;841.30;;;5.50;99.90;;;;;;5095003;28;20953;-66
2024/03/24 06:18:59;;;;;;;897.47;841.50;;;5.50;99.90;;;;;;5097560;28;20203;-66
2024/03/24 06:21:25;;;;;;;891.27;835.47;;;5.60;99.90;;;;;;5085200;28;20493;-67
2024/03/24 06:23:54;;;;;;;890.93;835.63;;;5.60;99.90;;;;;;5075354;28;20227;-67
2024/03/24 06:26:21;;;;;;;899.03;843.30;;;5.60;99.90;;;;;;5083540;28;20462;-66
2024/03/24 06:28:46;;;;;;;897.30;842.80;;;5.60;99.90;;;;;;5074858;28;20461;-67
2024/03/24 06:31:14;;;;;;;904.13;849.23;;;5.70;99.90;;;;;;5076692;28;20462;-66
2024/03/24 06:33:40;;;;;;;890.20;836.10;;;5.70;99.90;;;;;;5083108;28;20777;-66
2024/03/24 06:36:07;;;;;;;886.40;834.37;;;5.80;99.90;;;;;;5074016;28;20492;-66
2024/03/24 06:38:33;;;;;;;889.03;836.37;;;5.80;99.90;;;;;;5073828;28;20456;-66
2024/03/24 06:41:01;;;;;;;893.00;840.23;;;5.80;99.90;;;;;;5080877;28;20453;-66
2024/03/24 06:43:36;;;;;;;888.70;837.40;;;5.80;99.90;;;;;;5074011;28;20215;-66
2024/03/24 06:46:03;;;;;;;886.30;835.70;;;5.80;99.90;;;;;;5074375;28;20464;-66
2024/03/24 06:48:28;;;;;;;888.00;837.77;;;5.90;99.90;;;;;;5076774;28;20453;-65
2024/03/24 06:50:55;;;;;;;883.63;836.23;;;6.00;99.90;;;;;;5080596;28;20549;-66
2024/03/24 06:53:21;;;;;;;890.87;842.10;;;6.00;99.90;;;;;;5073745;28;20231;-66
2024/03/24 06:55:49;;;;;;;886.70;839.73;;;6.00;99.90;;;;;;5079321;28;20477;-66
2024/03/24 06:58:17;;;;;;;884.97;837.47;;;6.00;99.90;;;;;;5077477;28;20477;-67
2024/03/24 07:00:44;;;;;;;865.37;824.03;;;6.00;99.90;;;;;;5081547;28;20622;-66
2024/03/24 07:03:11;;;;;;;854.93;815.43;;;6.00;99.90;;;;;;5074444;28;20481;-66
2024/03/24 07:05:36;;;;;;;817.00;782.00;;;5.90;99.90;;;;;;5074589;28;20439;-66
2024/03/24 07:08:04;;;;;;;811.67;777.13;;;6.00;99.90;;;;;;5082556;28;20460;-66
2024/03/24 07:10:29;;;;;;;840.03;802.03;;;6.10;99.90;;;;;;5074086;28;20208;-66
2024/03/24 07:12:56;;;;;;;827.30;790.67;;;6.20;99.90;;;;;;5073874;28;20481;-66
2024/03/24 07:15:23;;;;;;;788.20;755.60;;;6.40;99.90;;;;;;5075653;28;20220;-67
2024/03/24 07:17:52;;;;;;;817.43;781.73;;;6.00;99.90;;;;;;5080400;28;20469;-67
2024/03/24 07:20:17;;;;;;;813.00;777.83;;;5.60;99.90;;;;;;5082293;28;20487;-67
2024/03/24 07:22:44;;;;;;;839.70;800.53;;;5.50;99.90;;;;;;5073932;28;20498;-67
2024/03/24 07:25:12;;;;;;;844.23;803.90;;;5.60;99.90;;;;;;5073922;28;20196;-67
2024/03/24 07:27:39;;;;;;;837.73;798.93;;;5.50;99.90;;;;;;5073356;28;20515;-67
2024/03/24 07:30:06;;;;;;;865.27;820.50;;;5.50;99.90;;;;;;5073674;28;20466;-67
2024/03/24 07:32:35;;;;;;;867.93;822.80;;;5.50;99.90;;;;;;5082212;28;20516;-67
2024/03/24 07:35:01;;;;;;;874.87;827.90;;;5.50;99.90;;;;;;5073763;28;20492;-67
2024/03/24 07:37:28;;;;;;;874.37;826.37;;;5.60;99.90;;;;;;5081692;28;20536;-67
2024/03/24 07:39:54;;;;;;;861.10;816.10;;;5.60;99.90;;;;;;5073763;28;20459;-66
2024/03/24 07:42:21;;;;;;;847.93;804.90;;;5.60;99.90;;;;;;5073279;28;20458;-67
2024/03/24 07:44:46;;;;;;;838.07;795.57;;;5.70;99.90;;;;;;5073538;28;20227;-67
2024/03/24 07:47:13;;;;;;;842.40;798.83;;;5.70;99.90;;;;;;5072839;28;20494;-67
2024/03/24 07:49:40;;;;;;;848.57;804.30;;;5.50;99.90;;;;;;5081680;28;20192;-67
2024/03/24 07:52:10;;;;;;;852.70;807.37;;;5.50;99.90;;;;;;5081601;28;20550;-67
2024/03/24 07:54:36;;;;;;;858.07;811.03;;;5.50;99.90;;;;;;5071730;28;21064;-67
2024/03/24 07:57:03;;;;;;;845.00;799.40;;;5.50;99.90;;;;;;5080725;28;20533;-67
2024/03/24 07:59:29;;;;;;;809.57;767.40;;;5.60;99.90;;;;;;5074690;28;20207;-67
2024/03/24 08:01:56;;;;;;;824.57;781.90;;;5.60;99.90;;;;;;5086358;28;20450;-67
2024/03/24 08:04:22;;;;;;;834.23;792.23;;;5.70;99.90;;;;;;5070323;28;20549;-67
2024/03/24 08:06:51;;;;;;;877.03;829.73;;;5.80;99.90;;;;;;5071164;28;20936;-67
2024/03/24 08:09:16;;;;;;;850.43;807.10;;;5.90;99.90;;;;;;5078783;28;20671;-67
2024/03/24 08:11:43;;;;;;;860.03;815.03;;;6.00;99.90;;;;;;5070720;28;20458;-66
2024/03/24 08:14:09;;;;;;;849.60;808.10;;;6.00;99.90;;;;;;5079218;28;20474;-67
2024/03/24 08:16:36;;;;;;;861.00;817.47;;;6.10;99.90;;;;;;5070888;28;20458;-67
2024/03/24 08:19:02;;;;;;;865.43;821.37;;;6.20;99.90;;;;;;5071277;28;20200;-68
2024/03/24 08:21:30;;;;;;;875.53;830.13;;;6.30;99.90;;;;;;5072709;28;20480;-67
2024/03/24 08:23:57;;;;;;;866.87;822.77;;;6.50;99.90;;;;;;5072483;28;20277;-67
2024/03/24 08:26:24;;;;;;;868.10;823.50;;;6.70;99.90;;;;;;5072662;28;20462;-68
2024/03/24 08:28:50;;;;;;;849.17;807.93;;;6.80;99.90;;;;;;5072345;28;20451;-67
2024/03/24 08:31:16;;;;;;;839.37;799.73;;;7.00;99.90;;;;;;5072533;28;20466;-67
2024/03/24 08:33:42;;;;;;;819.23;783.20;;;6.90;99.90;;;;;;5081128;28;20224;-67
2024/03/24 08:36:09;;;;;;;813.57;778.53;;;7.20;99.90;;;;;;5081219;28;20484;-67
2024/03/24 08:38:35;;;;;;;814.00;779.43;;;7.50;99.90;;;;;;5071841;28;20225;-67
2024/03/24 08:41:03;;;;;;;687.60;663.70;;;7.90;99.90;;;;;;5072385;28;20945;-67
2024/03/24 08:43:29;;;;;;;633.63;612.23;;;8.10;99.90;;;;;;5080496;28;20790;-67
2024/03/24 08:45:56;;;;;;;351.53;340.97;;;8.40;99.90;;;;;;5080781;28;20541;-67
2024/03/24 08:48:21;;;;;;;302.30;292.57;;;8.30;99.90;;;;;;5080295;28;20663;-66
2024/03/24 08:50:48;;;;;;;107.90;103.70;;;8.10;99.90;;;;;;5072236;28;20464;-66
2024/03/24 08:53:14;;;;;;;93.50;89.90;;;7.90;99.90;;;;;;5080135;28;20223;-66
2024/03/24 08:55:41;;;;;;;94.60;90.77;;;7.80;99.90;;;;;;5082641;28;20482;-67
2024/03/24 08:58:08;;;;;;;65.13;62.17;;;7.60;99.90;;;;;;5071789;28;20203;-66
2024/03/24 09:00:35;;;;;;;39.53;37.73;;;7.60;99.90;;;;;;5074226;28;20461;-66
2024/03/24 09:03:01;;;;;;;112.67;108.13;;;7.50;99.90;;;;;;5075651;28;20466;-69
2024/03/24 09:05:27;;;;;;;214.43;207.20;;;8.10;99.90;;;;;;5080383;28;20456;-66
2024/03/24 09:07:53;;;;;;;98.27;94.23;;;8.30;97.40;;;;;;5071817;28;20200;-66
2024/03/24 09:10:20;;;;;;;85.17;81.23;;;8.50;97.50;;;;;;5081139;28;20464;-67
2024/03/24 09:12:46;;;;;;;62.70;59.67;;;8.60;97.50;;;;;;5072391;28;20230;-67
2024/03/24 09:15:14;;;;;;;56.83;54.00;;;8.80;97.30;;;;;;5071927;28;20852;-67
2024/03/24 09:17:40;;;;;;;35.93;33.63;;;9.00;94.40;;;;;;5079851;28;20295;-67
2024/03/24 09:20:08;;;;;;;20.43;19.13;;;9.10;91.10;;;;;;5072371;28;20461;-67
2024/03/24 09:22:34;;;;;;;20.47;18.43;;;9.10;91.10;;;;;;5072463;28;20946;-67
2024/03/24 09:25:01;;;;;;;28.73;26.83;;;9.30;91.10;;;;;;5080363;28;20453;-67
2024/03/24 09:27:27;;;;;;;25.43;23.73;;;9.90;91.40;;;;;;5079035;28;20196;-67
2024/03/24 09:29:54;;;;;;;12.07;10.90;;;10.40;84.40;;;;;;5080041;28;20468;-67
2024/03/24 09:32:21;;;;;;;17.67;16.10;;;10.40;78.10;;;;;;5071996;28;20457;-67
2024/03/24 09:34:48;;;;;;;13.33;12.23;;;10.50;77.50;;;;;;5078475;28;20474;-67
2024/03/24 09:37:14;;;;;;;14.40;5.53;;;10.60;77.40;;;;;;5076533;28;20806;-66
2024/03/24 09:39:41;;;;;;;7.90;5.73;;;9.90;77.80;;;;;;5079632;28;20446;-66
2024/03/24 09:42:11;;;;;;;12.00;8.27;;;10.20;77.10;;;;;;5078898;28;20627;-66
2024/03/24 09:44:40;;;;;;;14.37;8.40;;;10.30;77.10;;;;;;5072944;28;20520;-67
2024/03/24 09:47:06;;;;;;;16.70;5.80;;;10.10;76.90;;;;;;5074719;28;20456;-65
2024/03/24 09:49:37;;;;;;;9.83;6.60;;;10.40;77.30;;;;;;5080975;28;20539;-66
2024/03/24 09:52:04;;;;;;;15.00;6.73;;;10.30;77.10;;;;;;5082248;28;20451;-67
2024/03/24 09:54:31;;;;;;;13.70;5.87;;;10.50;77.40;;;;;;5079223;28;20944;-66
2024/03/24 09:56:58;;;;;;;12.53;5.70;;;10.40;77.30;;;;;;5081623;28;20456;-66
2024/03/24 09:59:27;;;;;;;13.30;5.00;;;10.40;77.30;;;;;;5077800;28;20507;-66
2024/03/24 10:01:52;;;;;;;14.60;5.88;;;10.10;77.00;;;;;;5078712;28;20539;-66
2024/03/24 10:04:21;;;;;;;12.23;5.10;;;10.10;77.00;;;;;;5072600;28;20303;-66
2024/03/24 10:06:48;;;;;;;13.80;6.13;;;10.50;77.40;;;;;;5071337;28;20199;-67
2024/03/24 10:09:15;;;;;;;8.40;4.70;;;10.90;77.60;;;;;;5079739;28;20460;-66
2024/03/24 10:11:41;;;;;;;10.43;4.93;;;10.60;66.00;;;;;;5075106;28;20445;-66
2024/03/24 10:14:08;;;;;;;11.70;5.30;;;10.80;68.10;;;;;;5081953;28;20519;-67
2024/03/24 10:16:34;;;;;;;11.07;5.13;;;10.90;76.40;;;;;;5071026;28;21094;-67
2024/03/24 10:19:11;;;;;;;13.80;4.40;;;10.50;77.30;;;;;;5074551;28;20473;-66
2024/03/24 10:21:37;;;;;;;9.77;4.40;;;9.90;77.80;;;;;;5081984;28;20455;-66
2024/03/24 10:24:06;;;;;;;8.60;4.57;;;9.70;77.10;;;;;;5076783;28;21028;-66
2024/03/24 10:26:36;;;;;;;11.50;4.73;;;9.90;77.60;;;;;;5078911;28;20449;-66
2024/03/24 10:29:03;;;;;;;10.37;4.30;;;10.50;70.80;;;;;;5080351;28;20523;-67
2024/03/24 10:31:29;;;;;;;11.10;3.87;;;10.90;61.80;;;;;;5077691;28;20447;-66
2024/03/24 10:33:56;;;;;;;7.60;4.07;;;11.60;55.70;;;;;;5077600;28;20856;-67
2024/03/24 10:36:22;;;;;;;11.27;4.00;;;12.30;54.70;;;;;;5075940;28;20220;-67
2024/03/24 10:38:49;;;;;;;13.00;4.40;;;12.10;45.80;;;;;;5081249;28;20976;-67
2024/03/24 10:41:17;;;;;;;8.00;4.67;;;12.60;46.30;;;;;;5083633;28;20235;-67
2024/03/24 10:43:47;;;;;;;8.60;3.10;;;12.80;46.30;;;;;;5081884;28;20572;-66
2024/03/24 10:46:13;;;;;;;15.70;4.03;;;12.60;37.40;;;;;;5074573;28;20443;-66
2024/03/24 10:48:44;;;;;;;10.47;4.03;;;11.70;45.50;;;;;;5074053;28;20468;-66
2024/03/24 10:51:13;;;;;;;11.13;3.43;;;11.20;45.00;;;;;;5074236;28;20896;-66
2024/03/24 10:53:41;;;;;;;11.43;3.60;;;11.00;44.80;;;;;;5085606;28;20469;-66
2024/03/24 10:56:08;;;;;;;17.23;4.10;;;10.90;61.70;;;;;;5078358;28;20474;-66
2024/03/24 10:58:37;;;;;;;10.00;3.73;;;10.80;61.40;;;;;;5077535;28;20461;-67
2024/03/24 11:01:03;;;;;;;13.10;3.47;;;10.30;60.90;;;;;;5086560;28;20453;-67
2024/03/24 11:03:30;;;;;;;15.07;6.87;;;10.10;52.90;;;;;;5075876;28;20474;-67
2024/03/24 11:05:57;;;;;;;10.30;3.70;;;10.20;61.20;;;;;;5074361;28;21045;-66
2024/03/24 11:08:24;;;;;;;16.03;3.73;;;10.10;60.80;;;;;;5074121;28;20472;-66
2024/03/24 11:10:54;;;;;;;7.90;4.50;;;10.10;59.80;;;;;;5075574;28;20796;-66
2024/03/24 11:13:27;;;;;;;20.57;5.07;;;10.20;52.80;;;;;;5082644;28;20527;-67
2024/03/24 11:15:56;;;;;;;9.80;3.27;;;10.20;44.10;;;;;;5074088;28;20478;-66
2024/03/24 11:18:23;;;;;;;12.07;3.33;;;10.10;44.00;;;;;;5073677;28;20462;-66
2024/03/24 11:20:52;;;;;;;10.33;3.60;;;10.40;44.20;;;;;;5073955;28;20542;-66
2024/03/24 11:23:20;;;;;;;19.63;3.77;;;10.50;44.30;;;;;;5082014;28;20481;-67
2024/03/24 11:25:49;;;;;;;11.70;4.23;;;10.30;44.40;;;;;;5081118;28;20984;-66
2024/03/24 11:28:42;;;;;;;13.83;3.90;;;10.10;52.70;;;;;;5077876;28;20917;-67
2024/03/24 11:31:32;;;;;;;9.43;3.30;;;9.60;61.60;;;;;;5073781;28;20906;-66
2024/03/24 11:34:00;;;;;;;9.03;4.27;;;9.30;61.40;;;;;;5083426;28;20469;-66
2024/03/24 11:36:27;;;;;;;8.27;3.50;;;9.30;69.40;;;;;;5075230;28;20481;-67
2024/03/24 11:38:54;;;;;;;9.77;4.63;;;9.40;61.50;;;;;;5077239;28;20808;-67
2024/03/24 11:41:22;;;;;;;9.83;3.50;;;9.50;61.80;;;;;;5075535;28;20454;-67
2024/03/24 11:43:52;;;;;;;12.33;4.17;;;9.80;61.70;;;;;;5083972;28;20813;-67
2024/03/24 11:46:20;;;;;;;13.10;3.37;;;10.00;58.80;;;;;;5079802;28;20446;-64
2024/03/24 11:48:48;;;;;;;10.47;3.97;;;10.10;61.10;;;;;;5073067;28;20462;-67
2024/03/24 11:51:15;;;;;;;9.07;2.83;;;10.20;61.20;;;;;;5081951;28;20454;-67
2024/03/24 11:53:41;;;;;;;8.03;2.60;;;10.30;52.30;;;;;;5080029;28;20504;-67
2024/03/24 11:56:08;;;;;;;11.53;3.60;;;10.40;44.20;;;;;;5085024;28;20631;-67
2024/03/24 11:58:34;;;;;;;8.20;3.30;;;10.40;44.10;;;;;;5073083;28;20453;-67
2024/03/24 12:01:03;;;;;;;9.50;3.17;;;10.20;35.40;;;;;;5072915;28;20533;-67
2024/03/24 12:03:31;;;;;;;7.20;3.03;;;9.90;35.80;;;;;;5076092;28;20302;-67
2024/03/24 12:05:58;;;;;;;15.73;3.80;;;9.80;40.60;;;;;;5081684;28;20972;-67
2024/03/24 12:08:24;;;;;;;13.97;3.30;;;9.60;44.50;;;;;;5074641;28;20751;-66
2024/03/24 12:10:52;;;;;;;15.47;3.50;;;9.70;44.60;;;;;;5079307;28;20499;-66
2024/03/24 12:13:18;;;;;;;10.57;3.00;;;9.90;44.80;;;;;;5072689;28;20595;-67
2024/03/24 12:15:45;;;;;;;9.40;2.77;;;10.10;42.80;;;;;;5072589;28;20480;-67
2024/03/24 12:18:11;;;;;;;8.03;2.83;;;10.10;43.70;;;;;;5075317;28;20283;-66
2024/03/24 12:20:40;;;;;;;8.97;3.60;;;10.00;43.80;;;;;;5084802;28;20969;-67
2024/03/24 12:23:06;;;;;;;10.53;3.00;;;9.90;44.60;;;;;;5092958;28;20885;-67